Time;durP1;ratioP1;P1;durP2;ratioP2;P2;SDS_P1;SDS_P2;PMS_P1;PMS_P2;Temp;Humidity;BMP_temperature;BMP_pressure;BME280_temperature;BME280_humidity;BME280_pressure;Samples;Min_cycle;Max_cycle;Signal;HPM_P1;HPM_P2
2022/08/25 00:02:00;;;;;;;5.05;4.05;;;16.20;99.90;;;;;;5012560;28;20498;-50
2022/08/25 00:04:30;;;;;;;5.45;3.83;;;16.20;99.90;;;;;;5007051;28;20121;-49
2022/08/25 00:06:59;;;;;;;7.15;4.50;;;16.30;99.90;;;;;;5012646;28;20503;-54
2022/08/25 00:09:31;;;;;;;5.55;3.83;;;16.20;99.90;;;;;;5013458;28;20049;-51
2022/08/25 00:11:58;;;;;;;6.72;4.45;;;16.30;99.90;;;;;;4992159;28;20531;-49
2022/08/25 00:14:26;;;;;;;;;;;16.20;99.90;;;;;;5011462;28;20413;-52
2022/08/25 00:16:54;;;;;;;7.03;4.30;;;16.20;99.90;;;;;;5007956;28;20254;-52
2022/08/25 00:19:28;;;;;;;6.20;4.45;;;16.20;99.90;;;;;;5012813;28;20045;-50
2022/08/25 00:21:55;;;;;;;5.60;4.30;;;16.20;99.90;;;;;;5013108;28;20046;-49
2022/08/25 00:24:22;;;;;;;4.60;4.10;;;16.10;99.90;;;;;;5011856;28;20046;-53
2022/08/25 00:26:53;;;;;;;8.32;4.63;;;16.20;99.90;;;;;;5013496;28;20088;-50
2022/08/25 00:29:21;;;;;;;9.60;4.32;;;16.10;99.90;;;;;;5012504;28;20407;-51
2022/08/25 00:31:48;;;;;;;4.55;4.10;;;16.10;99.90;;;;;;5012290;28;20049;-52
2022/08/25 00:34:18;;;;;;;6.72;4.32;;;16.10;99.90;;;;;;5006547;28;20430;-50
2022/08/25 00:36:46;;;;;;;6.13;4.55;;;16.00;99.90;;;;;;5013114;28;20120;-52
2022/08/25 00:39:13;;;;;;;6.35;4.75;;;16.00;99.90;;;;;;5011289;28;20049;-53
2022/08/25 00:41:41;;;;;;;5.10;4.13;;;16.00;99.90;;;;;;5013126;28;20380;-50
2022/08/25 00:44:10;;;;;;;6.78;4.75;;;16.00;99.90;;;;;;5011855;28;20052;-50
2022/08/25 00:46:43;;;;;;;8.82;5.15;;;16.00;99.90;;;;;;5011174;28;20049;-52
2022/08/25 00:49:16;;;;;;;8.30;4.95;;;15.90;99.90;;;;;;5011755;28;20042;-52
2022/08/25 00:52:02;;;;;;;7.05;4.80;;;15.80;99.90;;;;;;5012834;28;20041;-50
2022/08/25 00:54:42;;;;;;;7.88;5.63;;;15.60;99.90;;;;;;4995242;28;20103;-50
2022/08/25 00:57:12;;;;;;;8.13;4.95;;;15.60;99.90;;;;;;5011259;28;20041;-51
2022/08/25 00:59:40;;;;;;;6.35;5.43;;;15.50;99.90;;;;;;5012910;28;20059;-50
2022/08/25 01:02:07;;;;;;;8.48;5.13;;;15.50;99.90;;;;;;5011312;28;20042;-51
2022/08/25 01:04:41;;;;;;;7.18;5.07;;;15.50;99.90;;;;;;5012479;28;20046;-51
2022/08/25 01:07:17;;;;;;;11.70;6.05;;;15.50;99.90;;;;;;5012006;28;20046;-51
2022/08/25 01:09:46;;;;;;;10.77;5.90;;;15.50;99.90;;;;;;5011174;28;20144;-50
2022/08/25 01:12:13;;;;;;;9.18;6.15;;;15.40;99.90;;;;;;5009809;28;20057;-50
2022/08/25 01:14:41;;;;;;;10.73;6.15;;;15.50;99.90;;;;;;5012186;28;20410;-50
2022/08/25 01:17:08;;;;;;;6.53;5.43;;;15.40;99.90;;;;;;5004934;28;20038;-49
2022/08/25 01:19:35;;;;;;;7.30;4.75;;;15.40;99.90;;;;;;5012511;28;20049;-51
2022/08/25 01:22:02;;;;;;;7.68;6.22;;;15.40;99.90;;;;;;5012417;28;20414;-52
2022/08/25 01:24:51;;;;;;;6.63;5.18;;;15.40;99.90;;;;;;5012173;28;20038;-50
2022/08/25 01:27:18;;;;;;;9.73;5.35;;;15.30;99.90;;;;;;5003672;28;20049;-50
2022/08/25 01:29:45;;;;;;;6.20;5.00;;;15.30;99.90;;;;;;5011670;28;20038;-52
2022/08/25 01:32:13;;;;;;;7.93;5.43;;;15.30;99.90;;;;;;5011620;28;20045;-50
2022/08/25 01:34:43;;;;;;;7.50;5.25;;;15.30;99.90;;;;;;5011911;28;20104;-50
2022/08/25 01:37:12;;;;;;;6.68;5.30;;;15.20;99.90;;;;;;5010472;28;20053;-50
2022/08/25 01:39:40;;;;;;;7.45;5.45;;;15.20;99.90;;;;;;5011904;28;20030;-50
2022/08/25 01:42:08;;;;;;;7.60;5.25;;;15.20;99.90;;;;;;5010297;28;20053;-53
2022/08/25 01:44:39;;;;;;;7.15;5.53;;;15.20;99.90;;;;;;5011630;28;20061;-50
2022/08/25 01:47:06;;;;;;;11.35;5.45;;;15.30;99.90;;;;;;5011274;28;20065;-52
2022/08/25 01:49:34;;;;;;;9.15;6.22;;;15.30;99.90;;;;;;5011684;28;20042;-54
2022/08/25 01:52:22;;;;;;;8.20;5.72;;;15.20;99.90;;;;;;5008279;28;20038;-52
2022/08/25 01:54:49;;;;;;;7.78;5.78;;;15.20;99.90;;;;;;5011552;28;20042;-50
2022/08/25 01:57:16;;;;;;;8.27;5.20;;;15.20;99.90;;;;;;5011887;28;20488;-50
2022/08/25 01:59:43;;;;;;;8.57;5.45;;;15.20;99.90;;;;;;5008543;28;20049;-50
2022/08/25 02:02:10;;;;;;;8.60;5.00;;;15.20;99.90;;;;;;5011182;28;20057;-51
2022/08/25 02:04:38;;;;;;;9.93;5.53;;;15.20;99.90;;;;;;5010856;28;20124;-50
2022/08/25 02:07:08;;;;;;;11.90;7.72;;;15.10;99.90;;;;;;5007354;28;20585;-50
2022/08/25 02:09:37;;;;;;;11.10;7.28;;;15.10;99.90;;;;;;5011473;28;20049;-52
2022/08/25 02:12:04;;;;;;;11.32;7.47;;;15.10;99.90;;;;;;5011490;28;20084;-51
2022/08/25 02:14:31;;;;;;;9.43;7.30;;;15.10;99.90;;;;;;5011181;28;20049;-51
2022/08/25 02:16:58;;;;;;;8.73;7.15;;;15.20;99.90;;;;;;5010675;28;20038;-52
2022/08/25 02:19:25;;;;;;;8.07;6.15;;;15.10;99.90;;;;;;5011780;28;20045;-50
2022/08/25 02:21:52;;;;;;;7.55;5.35;;;15.10;99.90;;;;;;5005999;28;20042;-51
2022/08/25 02:24:19;;;;;;;6.93;5.85;;;15.00;99.90;;;;;;5011001;28;20046;-51
2022/08/25 02:26:46;;;;;;;9.70;6.25;;;15.00;99.90;;;;;;5011036;28;20049;-50
2022/08/25 02:29:15;;;;;;;7.93;6.13;;;15.00;99.90;;;;;;5011534;28;20046;-50
2022/08/25 02:31:42;;;;;;;10.27;5.85;;;15.00;99.90;;;;;;5009803;28;20508;-53
2022/08/25 02:34:09;;;;;;;10.70;6.22;;;14.90;99.90;;;;;;5010917;28;20049;-51
2022/08/25 02:36:37;;;;;;;9.82;6.55;;;14.80;99.90;;;;;;5009750;28;20410;-51
2022/08/25 02:39:06;;;;;;;8.02;6.65;;;14.60;99.90;;;;;;5011051;28;20049;-50
2022/08/25 02:41:33;;;;;;;9.60;6.93;;;14.50;99.90;;;;;;5010652;28;20045;-50
2022/08/25 02:44:02;;;;;;;9.55;7.03;;;14.50;99.90;;;;;;5011030;28;20057;-50
2022/08/25 02:46:29;;;;;;;7.85;6.40;;;14.40;99.90;;;;;;5003969;28;20056;-51
2022/08/25 02:48:56;;;;;;;9.52;6.28;;;14.40;99.90;;;;;;5010882;28;20044;-50
2022/08/25 02:51:25;;;;;;;8.25;5.82;;;14.40;99.90;;;;;;5010893;28;20041;-52
2022/08/25 02:53:52;;;;;;;7.78;5.50;;;14.40;99.90;;;;;;5004447;28;20077;-50
2022/08/25 02:56:18;;;;;;;12.63;6.20;;;14.40;99.90;;;;;;5011173;28;20410;-49
2022/08/25 02:58:46;;;;;;;8.02;6.13;;;14.40;99.90;;;;;;5010465;28;20052;-51
2022/08/25 03:01:14;;;;;;;11.65;6.72;;;14.40;99.90;;;;;;5021957;28;20069;-51
2022/08/25 03:03:43;;;;;;;6.82;5.72;;;14.40;99.90;;;;;;5003609;28;20118;-51
2022/08/25 03:06:13;;;;;;;9.52;5.80;;;14.40;99.90;;;;;;5010849;28;20046;-53
2022/08/25 03:08:40;;;;;;;9.35;5.97;;;14.30;99.90;;;;;;5011215;28;20045;-50
2022/08/25 03:11:08;;;;;;;6.75;5.32;;;14.20;99.90;;;;;;5008677;28;20038;-51
2022/08/25 03:13:35;;;;;;;7.53;5.47;;;14.20;99.90;;;;;;5013256;28;20092;-51
2022/08/25 03:16:05;;;;;;;8.63;6.03;;;14.20;99.90;;;;;;5008695;28;20042;-50
2022/08/25 03:18:38;;;;;;;7.95;5.60;;;14.20;99.90;;;;;;5007609;28;20048;-51
2022/08/25 03:21:06;;;;;;;7.43;5.15;;;14.20;99.90;;;;;;5040372;22;20061;-48
2022/08/25 03:23:33;;;;;;;9.88;6.18;;;14.20;99.90;;;;;;5110513;28;20080;-48
2022/08/25 03:28:45;;;;;;;6.78;5.38;;;14.20;99.90;;;;;;5104045;28;20040;-49
2022/08/25 03:31:12;;;;;;;6.95;5.53;;;14.20;99.90;;;;;;5104972;28;20069;-47
2022/08/25 03:33:39;;;;;;;7.43;5.60;;;14.20;99.90;;;;;;5074971;28;20051;-48
2022/08/25 03:36:07;;;;;;;8.38;6.28;;;14.30;99.90;;;;;;5083127;28;20727;-49
2022/08/25 03:38:37;;;;;;;8.23;6.18;;;14.20;99.90;;;;;;5082148;28;20068;-47
2022/08/25 03:41:13;;;;;;;8.63;6.03;;;14.20;99.90;;;;;;5089315;28;20403;-47
2022/08/25 03:43:41;;;;;;;8.57;6.20;;;14.20;99.90;;;;;;5073131;28;20055;-49
2022/08/25 03:46:09;;;;;;;10.50;6.45;;;14.10;99.90;;;;;;5090524;28;20059;-47
2022/08/25 03:48:35;;;;;;;9.05;5.55;;;14.10;99.90;;;;;;5093909;28;20085;-47
2022/08/25 03:51:03;;;;;;;8.20;6.38;;;14.20;99.90;;;;;;5090230;28;20036;-47
2022/08/25 03:53:29;;;;;;;;;;;14.20;99.90;;;;;;5090102;28;20051;-48
2022/08/25 03:55:56;;;;;;;8.10;5.60;;;14.10;99.90;;;;;;5092978;28;20292;-48
2022/08/25 03:58:23;;;;;;;9.40;6.28;;;14.10;99.90;;;;;;5093589;28;20047;-46
2022/08/25 04:00:50;;;;;;;9.77;6.47;;;14.10;99.90;;;;;;5093524;28;20052;-47
2022/08/25 04:03:17;;;;;;;7.22;6.30;;;14.10;99.90;;;;;;5091851;28;20503;-49
2022/08/25 04:05:46;;;;;;;17.52;6.82;;;14.10;99.90;;;;;;5092711;28;20074;-48
2022/08/25 04:08:13;;;;;;;9.80;6.47;;;14.10;99.90;;;;;;5093438;28;20048;-47
2022/08/25 04:10:39;;;;;;;8.07;6.13;;;14.10;99.90;;;;;;5069061;28;20104;-49
2022/08/25 04:13:06;;;;;;;10.38;7.50;;;14.00;99.90;;;;;;5082028;28;20044;-48
2022/08/25 04:15:33;;;;;;;11.52;8.40;;;14.00;99.90;;;;;;5092100;28;20101;-47
2022/08/25 04:18:00;;;;;;;11.48;8.23;;;14.10;99.90;;;;;;5093176;28;20044;-47
2022/08/25 04:20:27;;;;;;;11.55;8.15;;;14.10;99.90;;;;;;5089147;28;20127;-48
2022/08/25 04:22:54;;;;;;;10.68;8.15;;;14.20;99.90;;;;;;5092683;28;20048;-48
2022/08/25 04:25:21;;;;;;;13.70;7.70;;;14.20;99.90;;;;;;5091216;28;20054;-52
2022/08/25 04:27:48;;;;;;;11.07;8.43;;;14.20;99.90;;;;;;5093701;28;20440;-49
2022/08/25 04:30:15;;;;;;;12.45;8.88;;;14.20;99.90;;;;;;5090727;28;20036;-49
2022/08/25 04:32:41;;;;;;;11.95;8.48;;;14.20;99.90;;;;;;5092863;28;20488;-48
2022/08/25 04:35:09;;;;;;;17.60;10.05;;;14.20;99.90;;;;;;5092203;28;20043;-47
2022/08/25 04:37:35;;;;;;;;;;;14.30;99.90;;;;;;5086896;28;20543;-49
2022/08/25 04:40:03;;;;;;;11.90;9.27;;;14.30;99.90;;;;;;5091728;28;20406;-50
2022/08/25 04:42:30;;;;;;;12.38;8.88;;;14.30;99.90;;;;;;5091984;28;20553;-49
2022/08/25 04:44:58;;;;;;;13.63;9.73;;;14.30;99.90;;;;;;5092657;28;20117;-52
2022/08/25 04:47:25;;;;;;;13.95;8.93;;;14.40;99.90;;;;;;5074382;28;20047;-49
2022/08/25 04:49:54;;;;;;;17.98;9.88;;;14.40;99.90;;;;;;5092552;28;20101;-47
2022/08/25 04:52:20;;;;;;;12.95;9.43;;;14.40;99.90;;;;;;5091531;28;20045;-51
2022/08/25 04:54:47;;;;;;;14.02;8.75;;;14.40;99.90;;;;;;5072251;28;20044;-49
2022/08/25 04:57:14;;;;;;;14.75;8.70;;;14.40;99.90;;;;;;5089940;28;20063;-48
2022/08/25 04:59:40;;;;;;;12.63;9.05;;;14.40;99.90;;;;;;5092189;28;20067;-46
2022/08/25 05:02:07;;;;;;;14.05;8.85;;;14.50;99.90;;;;;;5082781;28;20114;-47
2022/08/25 05:04:35;;;;;;;12.52;9.00;;;14.50;99.90;;;;;;5071627;28;20045;-48
2022/08/25 05:07:03;;;;;;;13.60;9.23;;;14.60;99.90;;;;;;5069679;28;20047;-47
2022/08/25 05:09:30;;;;;;;11.13;9.02;;;14.60;99.90;;;;;;5092092;28;20043;-47
2022/08/25 05:11:59;;;;;;;14.73;9.02;;;14.70;99.90;;;;;;5083622;28;20044;-49
2022/08/25 05:14:26;;;;;;;14.45;9.48;;;14.70;99.90;;;;;;5071677;28;20126;-51
2022/08/25 05:16:55;;;;;;;11.75;9.02;;;14.70;99.90;;;;;;5092054;28;20036;-48
2022/08/25 05:19:22;;;;;;;11.35;8.60;;;14.70;99.90;;;;;;5091343;28;20446;-48
2022/08/25 05:21:50;;;;;;;11.80;8.70;;;14.80;99.90;;;;;;5078996;28;20581;-48
2022/08/25 05:24:17;;;;;;;12.55;9.88;;;14.80;99.90;;;;;;5070795;28;20397;-49
2022/08/25 05:26:44;;;;;;;17.05;9.25;;;14.80;99.90;;;;;;5073548;28;20493;-48
2022/08/25 05:29:11;;;;;;;10.93;8.48;;;14.80;99.90;;;;;;5074733;28;20051;-49
2022/08/25 05:31:38;;;;;;;13.73;8.93;;;14.90;99.90;;;;;;5085504;28;20053;-47
2022/08/25 05:34:10;;;;;;;13.55;8.55;;;14.90;99.90;;;;;;5071095;28;20067;-47
2022/08/25 05:36:41;;;;;;;11.77;8.77;;;14.90;99.90;;;;;;5074182;28;20105;-47
2022/08/25 05:39:09;;;;;;;17.67;9.90;;;14.90;99.90;;;;;;5090501;28;20109;-48
2022/08/25 05:41:36;;;;;;;12.10;9.15;;;15.00;99.90;;;;;;5070942;28;20049;-47
2022/08/25 05:44:03;;;;;;;;;;;15.00;99.90;;;;;;5071783;28;20399;-48
2022/08/25 05:46:30;;;;;;;12.13;8.20;;;15.10;99.90;;;;;;5070461;28;19924;-47
2022/08/25 05:48:57;;;;;;;12.68;8.73;;;15.10;99.90;;;;;;5071557;28;20117;-47
2022/08/25 05:51:25;;;;;;;10.50;8.60;;;15.30;99.90;;;;;;5078266;28;20267;-47
2022/08/25 05:53:52;;;;;;;11.02;8.95;;;15.30;99.90;;;;;;5076132;28;20055;-47
2022/08/25 05:56:19;;;;;;;;;;;15.40;99.90;;;;;;5071038;28;20115;-47
2022/08/25 05:58:47;;;;;;;11.77;8.20;;;15.40;99.90;;;;;;5070497;28;19924;-47
2022/08/25 06:04:11;;;;;;;13.73;8.85;;;15.60;99.90;;;;;;5070771;28;20054;-47
2022/08/25 06:06:39;;;;;;;11.20;8.00;;;15.70;99.90;;;;;;5071110;28;20094;-49
2022/08/25 06:09:07;;;;;;;12.10;8.18;;;15.70;99.90;;;;;;5071492;28;20037;-47
2022/08/25 06:11:39;;;;;;;11.70;8.48;;;15.80;99.90;;;;;;5070670;28;20040;-47
2022/08/25 06:14:07;;;;;;;10.73;8.20;;;15.90;99.90;;;;;;5070829;28;20040;-47
2022/08/25 06:16:34;;;;;;;13.00;8.30;;;16.00;99.90;;;;;;5070663;28;20062;-47
2022/08/25 06:19:01;;;;;;;16.65;8.90;;;16.00;99.90;;;;;;5079107;28;20047;-47
2022/08/25 06:21:28;;;;;;;13.43;8.23;;;16.00;99.90;;;;;;5070879;28;20047;-46
2022/08/25 06:23:55;;;;;;;14.35;9.25;;;16.10;99.90;;;;;;5070426;28;20110;-47
2022/08/25 06:26:22;;;;;;;13.52;9.57;;;16.10;99.90;;;;;;5070166;28;20463;-47
2022/08/25 06:28:50;;;;;;;13.82;7.65;;;16.20;99.90;;;;;;5074823;28;20040;-49
2022/08/25 06:31:18;;;;;;;13.43;8.73;;;16.10;99.90;;;;;;5082520;28;20075;-49
2022/08/25 06:33:45;;;;;;;12.20;8.52;;;16.30;99.90;;;;;;5090565;28;20055;-47
2022/08/25 06:36:12;;;;;;;9.63;7.43;;;16.40;99.90;;;;;;5089006;28;20077;-48
2022/08/25 06:38:38;;;;;;;9.50;7.05;;;16.60;99.90;;;;;;5070914;28;20508;-49
2022/08/25 06:41:07;;;;;;;10.75;7.78;;;16.80;99.90;;;;;;5070889;28;20045;-47
2022/08/25 06:43:34;;;;;;;10.55;6.72;;;16.90;99.90;;;;;;5070407;28;20103;-47
2022/08/25 06:46:28;;;;;;;9.52;7.78;;;17.00;99.90;;;;;;5071495;28;20408;-47
2022/08/25 06:49:01;;;;;;;8.05;6.40;;;17.10;99.90;;;;;;5072724;28;20406;-48
2022/08/25 06:51:28;;;;;;;11.50;7.35;;;17.20;99.90;;;;;;5095032;28;20051;-49
2022/08/25 06:53:55;;;;;;;16.05;7.47;;;17.30;99.90;;;;;;5085646;28;20435;-48
2022/08/25 06:56:22;;;;;;;8.38;6.55;;;17.50;99.90;;;;;;5074815;28;20047;-47
2022/08/25 06:58:49;;;;;;;9.55;6.63;;;17.60;99.90;;;;;;5073841;28;20511;-47
2022/08/25 07:01:24;;;;;;;9.98;6.25;;;17.70;99.90;;;;;;5074737;28;20048;-49
2022/08/25 07:03:56;;;;;;;11.32;7.18;;;17.70;99.90;;;;;;5088484;28;20134;-48
2022/08/25 07:06:24;;;;;;;11.57;7.32;;;17.80;99.90;;;;;;5086538;28;20044;-47
2022/08/25 07:08:50;;;;;;;;;;;17.90;99.90;;;;;;5095625;28;20048;-47
2022/08/25 07:11:20;;;;;;;9.52;7.10;;;18.00;99.90;;;;;;5092559;28;20407;-48
2022/08/25 07:13:47;;;;;;;12.68;6.82;;;18.20;99.90;;;;;;5088010;28;20040;-47
2022/08/25 07:16:15;;;;;;;9.35;6.15;;;18.20;99.90;;;;;;5075104;28;20040;-51
2022/08/25 07:18:43;;;;;;;9.18;6.63;;;18.30;99.90;;;;;;5074505;28;20139;-49
2022/08/25 07:21:12;;;;;;;8.10;6.15;;;18.40;99.90;;;;;;5073879;28;20106;-49
2022/08/25 07:23:40;;;;;;;8.88;6.85;;;18.50;99.90;;;;;;5073924;28;20049;-49
2022/08/25 07:26:19;;;;;;;9.75;6.20;;;18.50;99.90;;;;;;5080469;28;20059;-49
2022/08/25 07:29:11;;;;;;;11.73;5.93;;;18.70;99.90;;;;;;5088067;28;20040;-51
2022/08/25 07:31:38;;;;;;;8.93;6.38;;;18.90;99.90;;;;;;5087150;28;20040;-51
2022/08/25 07:36:53;;;;;;;15.10;6.70;;;19.10;99.90;;;;;;5081094;28;19932;-50
2022/08/25 07:39:20;;;;;;;11.65;6.18;;;19.10;99.90;;;;;;5073477;28;20507;-49
2022/08/25 07:41:48;;;;;;;;;;;19.20;99.90;;;;;;5073033;28;20048;-46
2022/08/25 07:44:19;;;;;;;8.77;6.22;;;19.30;99.90;;;;;;5073871;28;19920;-51
2022/08/25 07:46:47;;;;;;;11.90;6.97;;;19.50;99.90;;;;;;5078484;28;20060;-48
2022/08/25 07:49:16;;;;;;;8.52;6.40;;;19.60;99.90;;;;;;5073628;28;20120;-49
2022/08/25 07:51:49;;;;;;;7.78;6.70;;;19.80;99.90;;;;;;5073498;28;20352;-49
2022/08/25 07:54:35;;;;;;;9.57;6.35;;;19.80;99.90;;;;;;5075717;28;20055;-50
2022/08/25 07:57:06;;;;;;;7.78;6.22;;;19.90;99.90;;;;;;5077387;28;20548;-49
2022/08/25 07:59:34;;;;;;;6.78;5.85;;;20.00;99.90;;;;;;5072402;28;20436;-50
2022/08/25 08:02:11;;;;;;;8.05;5.80;;;20.10;99.90;;;;;;5073212;28;20402;-50
2022/08/25 08:04:47;;;;;;;9.10;6.00;;;20.20;99.90;;;;;;5072012;28;20047;-49
2022/08/25 08:07:20;;;;;;;9.07;5.60;;;20.40;99.90;;;;;;5073869;28;20036;-51
2022/08/25 08:09:49;;;;;;;10.00;5.38;;;20.60;99.90;;;;;;5075093;28;20109;-49
2022/08/25 08:12:36;;;;;;;7.10;5.47;;;20.70;99.90;;;;;;5073263;28;20461;-49
2022/08/25 08:15:03;;;;;;;8.68;5.80;;;20.90;99.90;;;;;;5072627;28;20283;-50
2022/08/25 08:17:37;;;;;;;7.68;5.22;;;21.00;99.90;;;;;;5073501;28;20045;-49
2022/08/25 08:20:07;;;;;;;6.88;5.00;;;21.20;99.90;;;;;;5072924;28;20045;-49
2022/08/25 08:22:37;;;;;;;5.60;5.00;;;21.10;99.90;;;;;;5072812;28;20047;-49
2022/08/25 08:25:05;;;;;;;8.50;5.50;;;21.20;99.90;;;;;;5072416;28;20041;-49
2022/08/25 08:27:41;;;;;;;8.27;5.68;;;21.30;99.90;;;;;;5080181;28;20041;-49
2022/08/25 08:30:09;;;;;;;5.38;4.68;;;21.40;99.90;;;;;;5071945;28;20036;-50
2022/08/25 08:32:36;;;;;;;10.95;5.10;;;21.60;99.90;;;;;;5071867;28;20055;-49
2022/08/25 08:35:23;;;;;;;9.27;5.25;;;21.60;99.90;;;;;;5080282;28;20090;-49
2022/08/25 08:37:50;;;;;;;;;;;21.90;99.90;;;;;;5086806;28;20090;-49
2022/08/25 08:40:20;;;;;;;6.85;5.60;;;22.00;99.90;;;;;;5092621;28;19959;-55
2022/08/25 08:43:05;;;;;;;6.30;5.35;;;22.10;99.90;;;;;;5079052;28;20408;-49
2022/08/25 08:45:52;;;;;;;7.38;4.75;;;22.30;99.90;;;;;;5071964;28;20053;-51
2022/08/25 08:48:32;;;;;;;15.68;6.15;;;22.40;99.90;;;;;;5072233;28;20045;-50
2022/08/25 08:51:03;;;;;;;11.18;5.57;;;22.30;99.90;;;;;;5072109;28;20534;-49
2022/08/25 08:53:59;;;;;;;6.88;4.82;;;22.30;99.90;;;;;;5072349;28;20032;-49
2022/08/25 08:56:30;;;;;;;5.82;4.80;;;22.20;99.90;;;;;;5077070;28;20760;-49
2022/08/25 08:59:05;;;;;;;6.10;5.18;;;22.20;99.90;;;;;;5072104;28;20059;-49
2022/08/25 09:01:41;;;;;;;5.82;4.97;;;22.30;99.90;;;;;;5071251;28;20054;-50
2022/08/25 09:04:15;;;;;;;7.55;5.28;;;22.40;99.90;;;;;;5078455;28;20122;-49
2022/08/25 09:06:46;;;;;;;11.10;5.32;;;22.50;99.90;;;;;;5077263;28;20044;-51
2022/08/25 09:09:21;;;;;;;7.13;5.30;;;22.60;99.90;;;;;;5091039;28;20044;-49
2022/08/25 09:12:11;;;;;;;7.03;4.70;;;22.80;99.90;;;;;;5091528;28;20169;-49
2022/08/25 09:14:56;;;;;;;12.77;4.93;;;22.80;99.90;;;;;;5071502;28;20033;-52
2022/08/25 09:17:33;;;;;;;7.35;4.75;;;22.90;99.90;;;;;;5091137;28;20040;-49
2022/08/25 09:20:33;;;;;;;11.32;5.03;;;23.00;99.90;;;;;;5091904;28;20048;-49
2022/08/25 09:26:55;;;;;;;9.13;4.53;;;23.40;99.90;;;;;;5089681;28;20076;-50
2022/08/25 09:29:29;;;;;;;8.25;4.68;;;23.60;99.90;;;;;;5093840;28;20044;-52
2022/08/25 09:31:59;;;;;;;8.93;4.72;;;23.70;99.90;;;;;;5105066;28;20043;-49
2022/08/25 09:34:30;;;;;;;6.85;4.30;;;23.70;99.90;;;;;;5091958;28;20399;-50
2022/08/25 09:36:58;;;;;;;5.40;4.40;;;23.70;99.90;;;;;;5086416;28;20485;-48
2022/08/25 09:39:26;;;;;;;5.85;4.45;;;23.70;99.90;;;;;;5090990;28;20058;-49
2022/08/25 09:41:59;;;;;;;5.75;4.25;;;23.80;99.90;;;;;;5091504;28;20044;-51
2022/08/25 09:44:37;;;;;;;5.82;4.20;;;23.90;99.90;;;;;;5090415;28;20075;-50
2022/08/25 09:47:40;;;;;;;6.07;4.93;;;23.80;99.90;;;;;;5088233;28;20050;-50
2022/08/25 09:50:15;;;;;;;6.57;4.47;;;23.80;99.90;;;;;;5086584;28;20488;-50
2022/08/25 09:52:44;;;;;;;6.65;4.07;;;23.80;99.90;;;;;;5106423;28;20151;-49
2022/08/25 09:55:28;;;;;;;7.38;4.28;;;23.70;99.90;;;;;;5099318;28;20446;-52
2022/08/25 09:57:58;;;;;;;9.18;4.28;;;23.80;99.90;;;;;;5111580;28;20081;-50
2022/08/25 10:00:32;;;;;;;4.55;4.00;;;23.80;99.90;;;;;;5112171;28;20043;-51
2022/08/25 10:03:04;;;;;;;8.30;4.28;;;23.80;99.90;;;;;;5083433;28;20484;-49
2022/08/25 10:05:40;;;;;;;5.10;4.40;;;23.90;99.90;;;;;;5103353;28;20105;-51
2022/08/25 10:08:21;;;;;;;4.22;3.83;;;24.00;99.90;;;;;;5111784;28;20448;-49
2022/08/25 10:10:56;;;;;;;6.10;4.00;;;24.10;99.90;;;;;;5098726;28;20485;-49
2022/08/25 10:13:34;;;;;;;7.22;4.57;;;24.30;99.90;;;;;;5101717;28;20047;-49
2022/08/25 10:16:12;;;;;;;5.13;4.47;;;24.40;99.90;;;;;;5111519;28;20496;-52
2022/08/25 10:19:22;;;;;;;5.00;4.18;;;24.50;99.90;;;;;;5111677;28;20093;-51
2022/08/25 10:22:06;;;;;;;6.55;4.20;;;24.50;99.90;;;;;;5077529;28;20056;-51
2022/08/25 10:24:34;;;;;;;5.68;4.65;;;24.50;99.90;;;;;;5081921;28;20052;-49
2022/08/25 10:27:17;;;;;;;6.30;4.35;;;24.60;99.90;;;;;;5090531;28;20056;-51
2022/08/25 10:29:52;;;;;;;4.45;4.05;;;24.60;99.90;;;;;;5085508;28;20044;-49
2022/08/25 10:32:30;;;;;;;6.38;4.60;;;24.60;99.90;;;;;;5099566;28;20036;-50
2022/08/25 10:35:01;;;;;;;6.13;4.45;;;24.60;99.90;;;;;;5110734;28;20044;-50
2022/08/25 10:37:44;;;;;;;8.52;4.90;;;24.50;99.90;;;;;;5099111;28;20047;-49
2022/08/25 10:40:31;;;;;;;5.88;4.35;;;24.50;99.90;;;;;;5108518;28;20044;-50
2022/08/25 10:43:23;;;;;;;7.25;4.32;;;24.50;99.90;;;;;;5110494;28;20044;-49
2022/08/25 10:46:14;;;;;;;6.97;4.93;;;24.50;99.90;;;;;;5107187;28;20054;-50
2022/08/25 10:49:03;;;;;;;9.55;5.38;;;24.50;99.90;;;;;;5084308;28;20214;-48
2022/08/25 10:51:43;;;;;;;7.40;5.72;;;24.50;99.90;;;;;;5090443;28;20047;-49
2022/08/25 10:54:19;;;;;;;12.95;5.32;;;24.60;99.90;;;;;;5090825;28;20044;-49
2022/08/25 10:56:57;;;;;;;6.20;5.18;;;24.60;99.90;;;;;;5071233;28;20625;-49
2022/08/25 10:59:57;;;;;;;11.20;5.93;;;24.80;99.90;;;;;;5100814;28;20354;-51
2022/08/25 11:03:05;;;;;;;11.23;5.22;;;24.90;99.90;;;;;;5109558;28;20051;-49
2022/08/25 11:05:39;;;;;;;6.07;4.85;;;25.00;99.90;;;;;;5106038;28;20048;-51
2022/08/25 11:08:20;;;;;;;6.55;5.78;;;24.90;99.90;;;;;;5095147;28;20047;-49
2022/08/25 11:11:02;;;;;;;8.35;5.25;;;24.90;99.90;;;;;;5111047;28;20039;-49
2022/08/25 11:13:44;;;;;;;6.65;5.47;;;24.90;99.90;;;;;;5111249;28;20100;-49
2022/08/25 11:16:17;;;;;;;8.60;5.50;;;24.90;99.90;;;;;;5098043;28;20043;-49
2022/08/25 11:19:11;;;;;;;5.65;5.13;;;25.00;99.90;;;;;;5111493;28;20435;-49
2022/08/25 11:22:11;;;;;;;7.50;5.30;;;25.20;99.90;;;;;;5092408;28;20052;-50
2022/08/25 11:25:03;;;;;;;6.43;5.10;;;25.40;99.90;;;;;;5103109;28;20035;-50
2022/08/25 11:27:59;;;;;;;8.57;5.18;;;25.40;99.90;;;;;;5084943;28;20035;-49
2022/08/25 11:30:27;;;;;;;7.82;4.80;;;25.50;99.90;;;;;;5045712;28;20448;-53
2022/08/25 11:32:55;;;;;;;9.02;4.80;;;25.60;99.90;;;;;;5091229;28;20427;-50
2022/08/25 11:35:46;;;;;;;8.63;5.10;;;25.80;99.90;;;;;;5086873;28;20052;-50
2022/08/25 11:38:36;;;;;;;6.15;4.80;;;25.70;99.90;;;;;;5086015;28;20484;-49
2022/08/25 11:41:20;;;;;;;6.15;5.25;;;25.80;99.90;;;;;;5097579;28;20048;-49
2022/08/25 11:43:50;;;;;;;6.95;5.47;;;25.80;99.90;;;;;;5093599;28;20031;-51
2022/08/25 11:46:25;;;;;;;5.55;4.63;;;25.80;99.90;;;;;;5113676;28;20034;-51
2022/08/25 11:49:12;;;;;;;6.72;4.90;;;25.80;99.90;;;;;;5114659;28;20050;-50
2022/08/25 11:51:48;;;;;;;5.47;4.60;;;25.80;99.90;;;;;;5077967;28;20043;-51
2022/08/25 11:54:41;;;;;;;7.00;4.40;;;25.60;99.90;;;;;;5076448;28;20036;-50
2022/08/25 11:57:20;;;;;;;6.47;5.15;;;25.30;99.90;;;;;;5093659;28;20053;-49
2022/08/25 11:59:53;;;;;;;8.48;5.00;;;25.00;99.90;;;;;;5093389;28;20046;-51
2022/08/25 12:02:50;;;;;;;6.68;5.25;;;25.10;99.90;;;;;;5113253;28;20105;-52
2022/08/25 12:05:22;;;;;;;8.65;4.97;;;25.20;99.90;;;;;;5092735;28;20059;-49
2022/08/25 12:10:55;;;;;;;5.20;4.70;;;25.70;99.90;;;;;;5106204;28;20047;-49
2022/08/25 12:13:24;;;;;;;5.63;4.47;;;25.60;99.90;;;;;;5113908;28;20127;-52
2022/08/25 12:15:51;;;;;;;6.68;4.78;;;25.50;99.90;;;;;;5101594;28;20414;-52
2022/08/25 12:18:21;;;;;;;4.68;4.28;;;25.40;99.90;;;;;;5101733;28;20047;-49
2022/08/25 12:20:55;;;;;;;8.25;4.85;;;25.20;99.90;;;;;;5105203;28;20397;-50
2022/08/25 12:23:38;;;;;;;8.10;4.70;;;25.00;99.90;;;;;;5102637;28;20066;-48
2022/08/25 12:26:23;;;;;;;6.00;4.95;;;24.80;99.90;;;;;;5112742;28;20078;-53
2022/08/25 12:29:00;;;;;;;6.80;4.85;;;24.60;99.90;;;;;;5100020;28;20056;-50
2022/08/25 12:31:55;;;;;;;4.85;4.22;;;24.50;99.90;;;;;;5088096;28;20040;-49
2022/08/25 12:35:07;;;;;;;10.93;5.27;;;24.40;99.90;;;;;;5113284;28;20434;-48
2022/08/25 12:37:54;;;;;;;5.85;4.53;;;24.40;99.90;;;;;;5113347;28;20044;-48
2022/08/25 12:40:35;;;;;;;4.95;4.45;;;24.60;99.90;;;;;;5091778;28;20036;-49
2022/08/25 12:43:26;;;;;;;14.20;4.90;;;24.90;99.90;;;;;;5113011;28;20105;-52
2022/08/25 12:46:25;;;;;;;5.13;4.63;;;25.00;99.90;;;;;;5089915;28;20435;-51
2022/08/25 12:48:59;;;;;;;7.50;4.55;;;25.20;99.90;;;;;;5112601;28;20398;-51
2022/08/25 12:51:42;;;;;;;5.63;4.70;;;25.20;99.90;;;;;;5113057;28;20385;-51
2022/08/25 12:55:05;;;;;;;6.03;4.13;;;25.20;99.90;;;;;;5085049;28;20040;-54
2022/08/25 12:57:40;;;;;;;5.85;4.65;;;25.10;99.90;;;;;;5017627;28;20060;-50
2022/08/25 13:00:46;;;;;;;4.97;4.20;;;25.30;99.90;;;;;;5074774;28;20076;-50
2022/08/25 13:03:46;;;;;;;5.22;3.72;;;25.60;99.90;;;;;;5084945;28;20065;-52
2022/08/25 13:06:52;;;;;;;5.40;4.03;;;25.80;99.90;;;;;;5111472;28;20051;-49
2022/08/25 13:09:41;;;;;;;5.10;4.40;;;26.00;99.90;;;;;;5093803;28;20571;-50
2022/08/25 13:12:13;;;;;;;;;;;26.20;99.90;;;;;;5092909;28;20515;-49
2022/08/25 13:14:42;;;;;;;4.88;4.18;;;26.30;99.90;;;;;;5092192;28;19950;-49
2022/08/25 13:17:10;;;;;;;8.15;4.13;;;26.20;99.90;;;;;;5092464;28;20044;-50
2022/08/25 13:19:37;;;;;;;6.32;3.55;;;26.10;99.90;;;;;;5085154;28;20035;-51
2022/08/25 13:22:13;;;;;;;4.78;4.38;;;26.10;99.90;;;;;;5085450;28;20048;-52
2022/08/25 13:24:45;;;;;;;5.80;4.78;;;26.30;99.90;;;;;;5105227;28;20503;-51
2022/08/25 13:27:25;;;;;;;5.35;4.20;;;26.40;99.90;;;;;;5112052;28;20101;-48
2022/08/25 13:29:58;;;;;;;6.13;4.35;;;26.40;99.90;;;;;;5112837;28;20044;-50
2022/08/25 13:32:32;;;;;;;4.45;3.92;;;26.20;99.90;;;;;;5083957;28;20454;-49